createdAt,value
2023-09-27T00:03:51.905Z,98149.53
2023-09-27T00:07:55.599Z,98151.72
2023-09-27T00:12:05.047Z,98153.91
2023-09-27T00:16:08.497Z,98150.19
2023-09-27T00:20:17.646Z,98148.94
2023-09-27T00:24:21.301Z,98147.50
2023-09-27T00:28:26.471Z,98146.66
2023-09-27T00:32:29.933Z,98145.22
2023-09-27T00:36:33.624Z,98137.69
2023-09-27T00:40:37.176Z,98137.09
2023-09-27T00:44:42.077Z,98135.81
2023-09-27T00:48:46.482Z,98136.19
2023-09-27T00:52:50.752Z,98140.34
2023-09-27T00:56:55.202Z,98142.09
2023-09-27T01:01:00.658Z,98133.31
2023-09-27T01:05:04.394Z,98130.09
2023-09-27T01:09:07.729Z,98139.72
2023-09-27T01:13:11.449Z,98139.81
2023-09-27T01:17:16.057Z,98128.19
2023-09-27T01:21:20.892Z,98137.81
2023-09-27T01:25:28.310Z,98130.50
2023-09-27T01:29:31.825Z,98136.47
2023-09-27T01:33:34.951Z,98138.44
2023-09-27T01:37:39.183Z,98137.19
2023-09-27T01:41:44.019Z,98143.44
2023-09-27T01:45:47.589Z,98136.53
2023-09-27T01:49:51.413Z,98139.50
2023-09-27T01:53:54.892Z,98136.44
2023-09-27T01:58:00.184Z,98138.59
2023-09-27T02:02:04.091Z,98136.31
2023-09-27T02:06:07.278Z,98132.25
2023-09-27T02:10:11.774Z,98132.59
2023-09-27T02:14:16.755Z,98127.53
2023-09-27T02:18:20.606Z,98132.34
2023-09-27T02:22:24.216Z,98127.44
2023-09-27T02:26:28.004Z,98133.22
2023-09-27T02:30:33.742Z,98125.69
2023-09-27T02:34:37.208Z,98131.28
2023-09-27T02:38:40.467Z,98128.06
2023-09-27T02:42:45.914Z,98126.41
2023-09-27T02:46:50.763Z,98136.09
2023-09-27T02:50:55.653Z,98145.78
2023-09-27T02:54:58.907Z,98138.91
2023-09-27T02:59:02.677Z,98132.66
2023-09-27T03:03:08.853Z,98127.06
2023-09-27T03:07:13.014Z,98131.94
2023-09-27T03:11:16.631Z,98130.59
2023-09-27T03:15:21.298Z,98128.63
2023-09-27T03:19:26.043Z,98131.69
2023-09-27T03:23:30.034Z,98129.25
2023-09-27T03:27:33.305Z,98133.88
2023-09-27T03:31:36.589Z,98134.22
2023-09-27T03:35:41.605Z,98145.25
2023-09-27T03:39:45.524Z,98138.44
2023-09-27T03:43:51.471Z,98133.22
2023-09-27T03:47:55.249Z,98127.22
2023-09-27T03:52:00.092Z,98130.38
2023-09-27T03:56:04.272Z,98124.63
2023-09-27T04:00:10.369Z,98136.97
2023-09-27T04:04:13.913Z,98130.06
2023-09-27T04:08:19.128Z,98136.78
2023-09-27T04:12:22.957Z,98133.16
2023-09-27T04:16:29.398Z,98133.44
2023-09-27T04:20:35.792Z,98121.63
2023-09-27T04:24:41.245Z,98133.41
2023-09-27T04:28:44.669Z,98140.44
2023-09-27T04:32:52.183Z,98142.63
2023-09-27T04:36:55.968Z,98149.72
2023-09-27T04:41:00.855Z,98160.09
2023-09-27T04:45:04.900Z,98151.63
2023-09-27T04:49:08.284Z,98160.19
2023-09-27T04:53:11.879Z,98174.63
2023-09-27T04:57:17.156Z,98173.03
2023-09-27T05:01:20.697Z,98174.81
2023-09-27T05:05:23.974Z,98181.84
2023-09-27T05:09:28.248Z,98188.94
2023-09-27T05:13:33.016Z,98185.47
2023-09-27T05:17:37.016Z,98193.34
2023-09-27T05:21:41.210Z,98204.66
2023-09-27T05:25:45.517Z,98205.44
2023-09-27T05:29:50.421Z,98213.63
2023-09-27T05:33:53.944Z,98213.94
2023-09-27T05:38:00.276Z,98206.84
2023-09-27T05:42:03.893Z,98219.09
2023-09-27T05:46:09.008Z,98220.69
2023-09-27T05:50:14.468Z,98228.97
2023-09-27T05:54:20.615Z,98232.66
2023-09-27T05:58:24.006Z,98221.25
2023-09-27T06:02:32.618Z,98229.63
2023-09-27T06:06:38.324Z,98234.03
2023-09-27T06:10:42.310Z,98235.34
2023-09-27T06:14:46.307Z,98236.47
2023-09-27T06:18:51.675Z,98230.03
2023-09-27T06:22:55.610Z,98235.13
2023-09-27T06:26:59.774Z,98239.91
2023-09-27T06:31:04.262Z,98237.16
2023-09-27T06:35:14.535Z,98246.59
2023-09-27T06:39:20.575Z,98245.50
2023-09-27T06:43:25.380Z,98248.69
2023-09-27T06:47:30.486Z,98251.59
2023-09-27T06:51:35.258Z,98254.88
2023-09-27T06:55:38.487Z,98259.09
2023-09-27T06:59:41.813Z,98262.53
2023-09-27T07:03:45.331Z,98265.38
2023-09-27T07:07:50.446Z,98270.56
2023-09-27T07:11:54.503Z,98268.47
2023-09-27T07:15:57.759Z,98280.44
2023-09-27T07:20:00.961Z,98285.66
2023-09-27T07:24:06.417Z,98283.28
2023-09-27T07:28:10.004Z,98280.50
2023-09-27T07:32:13.356Z,98287.78
2023-09-27T07:36:17.770Z,98280.50
2023-09-27T07:40:22.737Z,98284.16
2023-09-27T07:44:27.872Z,98280.13
2023-09-27T07:48:33.487Z,98284.22
2023-09-27T07:52:39.517Z,98287.94
2023-09-27T07:56:45.189Z,98279.88
2023-09-27T08:00:49.076Z,98277.19
2023-09-27T08:04:53.309Z,98286.94
2023-09-27T08:08:59.256Z,98290.00
2023-09-27T08:13:05.611Z,98285.13
2023-09-27T08:17:09.214Z,98286.06
2023-09-27T08:21:12.756Z,98291.84
2023-09-27T08:25:17.021Z,98292.72
2023-09-27T08:29:23.008Z,98292.47
2023-09-27T08:33:27.279Z,98286.03
2023-09-27T08:37:31.015Z,98284.13
2023-09-27T08:41:35.180Z,98277.84
2023-09-27T08:49:43.246Z,98282.41
2023-09-27T08:53:46.484Z,98277.59
2023-09-27T08:57:52.603Z,98266.09
2023-09-27T09:01:56.927Z,98276.81
2023-09-27T09:06:02.006Z,98278.69
2023-09-27T09:10:05.856Z,98287.00
2023-09-27T09:14:11.989Z,98285.19
2023-09-27T09:18:29.589Z,98286.59
2023-09-27T09:22:45.697Z,98277.75
2023-09-27T09:26:51.314Z,98277.44
2023-09-27T09:30:55.578Z,98276.13
2023-09-27T09:34:59.098Z,98276.81
2023-09-27T09:39:14.980Z,98270.13
2023-09-27T09:43:31.494Z,98273.19
2023-09-27T09:47:37.026Z,98274.75
2023-09-27T09:51:43.176Z,98277.31
2023-09-27T09:56:25.275Z,98266.50
2023-09-27T10:00:18.734Z,98270.22
2023-09-27T10:04:25.263Z,98263.72
2023-09-27T10:08:36.375Z,98259.09
2023-09-27T10:12:46.362Z,98250.97
2023-09-27T10:16:52.371Z,98247.78
2023-09-27T10:21:04.676Z,98254.34
2023-09-27T10:25:07.750Z,98247.28
2023-09-27T10:29:19.205Z,98246.56
2023-09-27T10:33:34.026Z,98235.66
2023-09-27T10:38:00.380Z,98238.69
2023-09-27T10:42:03.809Z,98238.13
2023-09-27T10:46:09.725Z,98228.78
2023-09-27T10:50:14.571Z,98218.88
2023-09-27T10:54:18.045Z,98214.56
2023-09-27T10:58:21.268Z,98210.28
2023-09-27T11:02:33.819Z,98200.59
2023-09-27T11:06:38.524Z,98201.16
2023-09-27T11:10:42.647Z,98194.66
2023-09-27T11:14:48.631Z,98184.97
2023-09-27T11:18:54.145Z,98174.72
2023-09-27T11:23:01.044Z,98165.03
2023-09-27T11:27:04.833Z,98159.66
2023-09-27T11:31:09.025Z,98160.16
2023-09-27T11:35:21.455Z,98148.03
2023-09-27T11:39:29.736Z,98156.91
2023-09-27T11:43:35.162Z,98145.38
2023-09-27T11:47:48.091Z,98132.94
2023-09-27T11:51:52.978Z,98125.91
2023-09-27T11:55:58.566Z,98121.78
2023-09-27T12:00:03.202Z,98112.59
2023-09-27T12:04:07.563Z,98102.94
2023-09-27T12:08:13.029Z,98106.78
2023-09-27T12:12:16.085Z,98092.84
2023-09-27T12:16:22.124Z,98086.75
2023-09-27T12:20:39.623Z,98088.63
2023-09-27T12:24:47.232Z,98087.03
2023-09-27T12:28:50.576Z,98078.16
2023-09-27T12:32:54.727Z,98066.03
2023-09-27T12:36:58.940Z,98063.88
2023-09-27T12:41:06.404Z,98045.81
2023-09-27T12:45:11.481Z,98045.22
2023-09-27T12:49:19.281Z,98043.59
2023-09-27T12:53:22.599Z,98036.28
2023-09-27T12:57:28.048Z,98028.75
2023-09-27T13:01:31.613Z,98022.84
2023-09-27T13:05:37.299Z,98016.41
2023-09-27T13:09:42.313Z,98016.41
2023-09-27T13:13:47.192Z,98005.31
2023-09-27T13:17:50.534Z,97999.06
2023-09-27T13:21:54.009Z,97990.38
2023-09-27T13:25:58.137Z,97981.47
2023-09-27T13:30:04.740Z,97971.59
2023-09-27T13:34:11.759Z,97981.84
2023-09-27T13:38:15.912Z,97963.66
2023-09-27T13:42:19.958Z,97961.09
2023-09-27T13:46:25.118Z,97958.44
2023-09-27T13:50:28.777Z,97953.66
2023-09-27T13:54:33.675Z,97943.13
2023-09-27T13:58:40.551Z,97925.06
2023-09-27T14:02:45.723Z,97928.00
2023-09-27T14:06:48.809Z,97920.41
2023-09-27T14:10:52.539Z,97917.16
2023-09-27T14:14:56.196Z,97913.63
2023-09-27T14:19:04.586Z,97904.41
2023-09-27T14:23:07.778Z,97907.00
2023-09-27T14:27:11.300Z,97901.50
2023-09-27T14:31:17.621Z,97900.34
2023-09-27T14:35:22.598Z,97896.22
2023-09-27T14:39:25.907Z,97890.59
2023-09-27T14:43:30.301Z,97882.06
2023-09-27T14:47:34.075Z,97882.13
2023-09-27T14:51:39.071Z,97878.97
2023-09-27T14:55:44.848Z,97873.34
2023-09-27T14:59:48.091Z,97869.88
2023-09-27T15:03:54.219Z,97858.00
2023-09-27T15:08:02.455Z,97853.72
2023-09-27T15:12:05.942Z,97848.38
2023-09-27T15:16:09.681Z,97843.09
2023-09-27T15:20:15.869Z,97837.00
2023-09-27T15:24:23.130Z,97825.28
2023-09-27T15:28:26.479Z,97828.13
2023-09-27T15:32:30.258Z,97819.59
2023-09-27T15:36:34.618Z,97820.03
2023-09-27T15:40:39.330Z,97810.44
2023-09-27T15:44:42.797Z,97808.38
2023-09-27T15:48:46.314Z,97801.53
2023-09-27T15:52:50.183Z,97797.06
2023-09-27T15:56:55.254Z,97784.25
2023-09-27T16:00:58.446Z,97791.03
2023-09-27T16:05:02.254Z,97783.56
2023-09-27T16:09:07.069Z,97779.31
2023-09-27T16:13:11.982Z,97779.31
2023-09-27T16:17:15.379Z,97773.69
2023-09-27T16:21:20.839Z,97764.78
2023-09-27T16:25:25.302Z,97763.66
2023-09-27T16:29:30.502Z,97758.13
2023-09-27T16:33:41.991Z,97761.94
2023-09-27T16:37:45.449Z,97758.69
2023-09-27T16:41:49.125Z,97751.47
2023-09-27T16:45:53.746Z,97746.84
2023-09-27T16:49:57.694Z,97744.81
2023-09-27T16:54:02.042Z,97747.03
2023-09-27T16:58:07.410Z,97742.31
2023-09-27T17:02:12.618Z,97748.81
2023-09-27T17:06:20.085Z,97749.44
2023-09-27T17:10:24.071Z,97750.06
2023-09-27T17:14:27.737Z,97743.22
2023-09-27T17:18:34.083Z,97735.88
2023-09-27T17:22:37.761Z,97734.94
2023-09-27T17:26:40.834Z,97741.44
2023-09-27T17:30:44.337Z,97734.63
2023-09-27T17:34:49.524Z,97726.00
2023-09-27T17:38:53.201Z,97733.84
2023-09-27T17:42:57.571Z,97738.78
2023-09-27T17:47:01.069Z,97731.25
2023-09-27T17:51:06.413Z,97726.16
2023-09-27T17:55:13.039Z,97727.19
2023-09-27T17:59:18.728Z,97721.03
2023-09-27T18:03:22.129Z,97727.94
2023-09-27T18:07:28.318Z,97725.81
2023-09-27T18:11:31.706Z,97724.53
2023-09-27T18:15:37.239Z,97728.50
2023-09-27T18:19:40.949Z,97718.44
2023-09-27T18:23:46.611Z,97717.94
2023-09-27T18:27:50.334Z,97711.56
2023-09-27T18:31:54.037Z,97712.09
2023-09-27T18:35:57.789Z,97715.25
2023-09-27T18:40:04.919Z,97717.59
2023-09-27T18:44:08.671Z,97713.88
2023-09-27T18:48:21.740Z,97714.94
2023-09-27T18:52:25.330Z,97716.44
2023-09-27T18:56:34.799Z,97715.72
2023-09-27T19:00:39.340Z,97714.38
2023-09-27T19:04:45.539Z,97718.13
2023-09-27T19:08:49.899Z,97722.88
2023-09-27T19:12:59.630Z,97719.44
2023-09-27T19:17:04.340Z,97717.09
2023-09-27T19:21:10.392Z,97715.09
2023-09-27T19:25:14.834Z,97710.44
2023-09-27T19:29:19.940Z,97724.09
2023-09-27T19:33:25.995Z,97722.31
2023-09-27T19:37:29.267Z,97721.31
2023-09-27T19:41:34.890Z,97734.38
2023-09-27T19:45:40.680Z,97735.81
2023-09-27T19:49:43.780Z,97736.47
2023-09-27T19:53:47.517Z,97735.28
2023-09-27T19:57:54.917Z,97727.97
2023-09-27T20:02:00.825Z,97735.13
2023-09-27T20:06:04.328Z,97738.84
2023-09-27T20:10:10.994Z,97743.91
2023-09-27T20:14:14.542Z,97743.16
2023-09-27T20:18:20.168Z,97746.66
2023-09-27T20:22:25.971Z,97744.25
2023-09-27T20:26:30.612Z,97747.72
2023-09-27T20:30:34.203Z,97748.94
2023-09-27T20:34:39.582Z,97757.09
2023-09-27T20:38:44.660Z,97762.81
2023-09-27T20:42:48.137Z,97757.16
2023-09-27T20:46:52.684Z,97768.94
2023-09-27T20:50:59.009Z,97768.16
2023-09-27T20:55:03.190Z,97770.81
2023-09-27T20:59:07.594Z,97771.00
2023-09-27T21:03:10.949Z,97779.13
2023-09-27T21:07:15.624Z,97781.16
2023-09-27T21:11:19.222Z,97784.34
2023-09-27T21:15:22.709Z,97784.97
2023-09-27T21:19:27.113Z,97786.38
2023-09-27T21:23:32.238Z,97785.94
2023-09-27T21:27:36.177Z,97778.66
2023-09-27T21:31:39.877Z,97774.56
2023-09-27T21:35:44.544Z,97780.03
2023-09-27T21:39:49.604Z,97783.44
2023-09-27T21:43:53.228Z,97785.06
2023-09-27T21:47:58.276Z,97778.06
2023-09-27T21:52:01.833Z,97785.72
2023-09-27T21:56:07.159Z,97784.47
2023-09-27T22:00:21.465Z,97789.28
2023-09-27T22:04:24.665Z,97782.53
2023-09-27T22:08:28.242Z,97781.50
2023-09-27T22:12:33.107Z,97777.63
2023-09-27T22:16:37.947Z,97776.19
2023-09-27T22:20:46.161Z,97778.03
2023-09-27T22:24:49.783Z,97782.66
2023-09-27T22:28:57.266Z,97783.66
2023-09-27T22:33:05.939Z,97784.25
2023-09-27T22:37:09.563Z,97778.56
2023-09-27T22:41:17.772Z,97783.78
2023-09-27T22:45:36.374Z,97775.41
2023-09-27T22:49:41.991Z,97781.56
2023-09-27T22:53:46.503Z,97783.44
2023-09-27T22:57:50.666Z,97783.31
2023-09-27T23:01:57.196Z,97785.88
2023-09-27T23:06:02.961Z,97792.59
2023-09-27T23:10:13.461Z,97792.28
2023-09-27T23:14:23.456Z,97788.97
2023-09-27T23:18:31.706Z,97782.47
2023-09-27T23:22:55.275Z,97787.91
2023-09-27T23:27:05.037Z,97783.00
2023-09-27T23:31:10.904Z,97785.38
2023-09-27T23:35:19.290Z,97786.09
2023-09-27T23:39:24.760Z,97788.63
2023-09-27T23:43:38.892Z,97791.00
2023-09-27T23:47:46.063Z,97782.88
2023-09-27T23:51:55.234Z,97795.75
2023-09-27T23:56:01.123Z,97805.31
